sensor_id;sensor_type;location;lat;lon;timestamp;temperature;humidity
6581;DHT22;3324;50.796;7.228;2022-08-30T00:00:33;19.10;99.90
6581;DHT22;3324;50.796;7.228;2022-08-30T00:03:18;19.10;99.90
6581;DHT22;3324;50.796;7.228;2022-08-30T00:05:44;19.00;99.90
6581;DHT22;3324;50.796;7.228;2022-08-30T00:08:11;18.90;99.90
6581;DHT22;3324;50.796;7.228;2022-08-30T00:10:37;18.80;99.90
6581;DHT22;3324;50.796;7.228;2022-08-30T00:13:04;18.80;99.90
6581;DHT22;3324;50.796;7.228;2022-08-30T00:15:31;18.70;99.90
6581;DHT22;3324;50.796;7.228;2022-08-30T00:17:58;18.70;99.90
6581;DHT22;3324;50.796;7.228;2022-08-30T00:20:26;18.70;99.90
6581;DHT22;3324;50.796;7.228;2022-08-30T00:22:52;18.70;99.90
6581;DHT22;3324;50.796;7.228;2022-08-30T00:25:18;18.70;99.90
6581;DHT22;3324;50.796;7.228;2022-08-30T00:27:45;18.60;99.90
6581;DHT22;3324;50.796;7.228;2022-08-30T00:30:12;18.60;99.90
6581;DHT22;3324;50.796;7.228;2022-08-30T00:32:38;18.60;99.90
6581;DHT22;3324;50.796;7.228;2022-08-30T00:35:07;18.60;99.90
6581;DHT22;3324;50.796;7.228;2022-08-30T00:37:33;18.50;99.90
6581;DHT22;3324;50.796;7.228;2022-08-30T00:39:59;18.50;99.90
6581;DHT22;3324;50.796;7.228;2022-08-30T00:42:25;18.50;99.90
6581;DHT22;3324;50.796;7.228;2022-08-30T00:44:51;18.40;99.90
6581;DHT22;3324;50.796;7.228;2022-08-30T00:47:17;18.40;99.90
6581;DHT22;3324;50.796;7.228;2022-08-30T00:49:46;18.40;99.90
6581;DHT22;3324;50.796;7.228;2022-08-30T00:52:13;18.40;99.90
6581;DHT22;3324;50.796;7.228;2022-08-30T00:54:41;18.50;99.90
6581;DHT22;3324;50.796;7.228;2022-08-30T00:57:09;18.60;99.90
6581;DHT22;3324;50.796;7.228;2022-08-30T00:59:35;18.70;99.90
6581;DHT22;3324;50.796;7.228;2022-08-30T01:02:01;18.70;99.90
6581;DHT22;3324;50.796;7.228;2022-08-30T01:04:28;18.70;99.90
6581;DHT22;3324;50.796;7.228;2022-08-30T01:06:55;18.80;99.90
6581;DHT22;3324;50.796;7.228;2022-08-30T01:09:22;18.80;99.90
6581;DHT22;3324;50.796;7.228;2022-08-30T01:11:48;18.80;99.90
6581;DHT22;3324;50.796;7.228;2022-08-30T01:14:15;18.80;99.90
6581;DHT22;3324;50.796;7.228;2022-08-30T01:16:42;18.70;99.90
6581;DHT22;3324;50.796;7.228;2022-08-30T01:19:23;18.60;99.90
6581;DHT22;3324;50.796;7.228;2022-08-30T01:22:10;18.50;99.90
6581;DHT22;3324;50.796;7.228;2022-08-30T01:24:42;18.60;99.90
6581;DHT22;3324;50.796;7.228;2022-08-30T01:27:16;18.50;99.90
6581;DHT22;3324;50.796;7.228;2022-08-30T01:29:42;18.50;99.90
6581;DHT22;3324;50.796;7.228;2022-08-30T01:32:16;18.40;99.90
6581;DHT22;3324;50.796;7.228;2022-08-30T01:34:43;18.40;99.90
6581;DHT22;3324;50.796;7.228;2022-08-30T01:37:14;18.40;99.90
6581;DHT22;3324;50.796;7.228;2022-08-30T01:39:44;18.40;99.90
6581;DHT22;3324;50.796;7.228;2022-08-30T01:42:09;18.30;99.90
6581;DHT22;3324;50.796;7.228;2022-08-30T01:44:35;18.30;99.90
6581;DHT22;3324;50.796;7.228;2022-08-30T01:47:01;18.30;99.90
6581;DHT22;3324;50.796;7.228;2022-08-30T01:49:26;18.30;99.90
6581;DHT22;3324;50.796;7.228;2022-08-30T01:51:52;18.30;99.90
6581;DHT22;3324;50.796;7.228;2022-08-30T01:54:18;18.20;99.90
6581;DHT22;3324;50.796;7.228;2022-08-30T01:56:43;18.20;99.90
6581;DHT22;3324;50.796;7.228;2022-08-30T01:59:09;18.10;99.90
6581;DHT22;3324;50.796;7.228;2022-08-30T02:01:36;18.10;99.90
6581;DHT22;3324;50.796;7.228;2022-08-30T02:04:04;18.00;99.90
6581;DHT22;3324;50.796;7.228;2022-08-30T02:06:30;18.00;99.90
6581;DHT22;3324;50.796;7.228;2022-08-30T02:08:56;18.00;99.90
6581;DHT22;3324;50.796;7.228;2022-08-30T02:11:22;18.00;99.90
6581;DHT22;3324;50.796;7.228;2022-08-30T02:13:48;18.00;99.90
6581;DHT22;3324;50.796;7.228;2022-08-30T02:16:17;18.00;99.90
6581;DHT22;3324;50.796;7.228;2022-08-30T02:18:43;17.90;99.90
6581;DHT22;3324;50.796;7.228;2022-08-30T02:21:10;17.90;99.90
6581;DHT22;3324;50.796;7.228;2022-08-30T02:23:36;17.90;99.90
6581;DHT22;3324;50.796;7.228;2022-08-30T02:26:03;17.90;99.90
6581;DHT22;3324;50.796;7.228;2022-08-30T02:28:29;17.90;99.90
6581;DHT22;3324;50.796;7.228;2022-08-30T02:30:55;18.00;99.90
6581;DHT22;3324;50.796;7.228;2022-08-30T02:33:20;18.00;99.90
6581;DHT22;3324;50.796;7.228;2022-08-30T02:35:46;17.90;99.90
6581;DHT22;3324;50.796;7.228;2022-08-30T02:38:12;17.90;99.90
6581;DHT22;3324;50.796;7.228;2022-08-30T02:40:38;17.90;99.90
6581;DHT22;3324;50.796;7.228;2022-08-30T02:43:03;17.80;99.90
6581;DHT22;3324;50.796;7.228;2022-08-30T02:45:29;17.80;99.90
6581;DHT22;3324;50.796;7.228;2022-08-30T02:47:55;17.70;99.90
6581;DHT22;3324;50.796;7.228;2022-08-30T02:50:23;17.70;99.90
6581;DHT22;3324;50.796;7.228;2022-08-30T02:52:50;17.70;99.90
6581;DHT22;3324;50.796;7.228;2022-08-30T02:55:17;17.70;99.90
6581;DHT22;3324;50.796;7.228;2022-08-30T02:57:43;17.60;99.90
6581;DHT22;3324;50.796;7.228;2022-08-30T03:00:10;17.60;99.90
6581;DHT22;3324;50.796;7.228;2022-08-30T03:02:37;17.50;99.90
6581;DHT22;3324;50.796;7.228;2022-08-30T03:05:05;17.50;99.90
6581;DHT22;3324;50.796;7.228;2022-08-30T03:07:31;17.50;99.90
6581;DHT22;3324;50.796;7.228;2022-08-30T03:09:56;17.30;99.90
6581;DHT22;3324;50.796;7.228;2022-08-30T03:12:22;17.30;99.90
6581;DHT22;3324;50.796;7.228;2022-08-30T03:14:50;17.30;99.90
6581;DHT22;3324;50.796;7.228;2022-08-30T03:17:15;17.30;99.90
6581;DHT22;3324;50.796;7.228;2022-08-30T03:19:42;17.20;99.90
6581;DHT22;3324;50.796;7.228;2022-08-30T03:22:09;17.20;99.90
6581;DHT22;3324;50.796;7.228;2022-08-30T03:24:35;17.10;99.90
6581;DHT22;3324;50.796;7.228;2022-08-30T03:27:00;17.10;99.90
6581;DHT22;3324;50.796;7.228;2022-08-30T03:29:26;17.10;99.90
6581;DHT22;3324;50.796;7.228;2022-08-30T03:31:54;17.10;99.90
6581;DHT22;3324;50.796;7.228;2022-08-30T03:34:21;17.00;99.90
6581;DHT22;3324;50.796;7.228;2022-08-30T03:36:47;17.00;99.90
6581;DHT22;3324;50.796;7.228;2022-08-30T03:39:14;17.00;99.90
6581;DHT22;3324;50.796;7.228;2022-08-30T03:41:39;17.00;99.90
6581;DHT22;3324;50.796;7.228;2022-08-30T03:44:05;17.00;99.90
6581;DHT22;3324;50.796;7.228;2022-08-30T03:46:31;17.00;99.90
6581;DHT22;3324;50.796;7.228;2022-08-30T03:48:56;16.90;99.90
6581;DHT22;3324;50.796;7.228;2022-08-30T03:51:23;16.90;99.90
6581;DHT22;3324;50.796;7.228;2022-08-30T03:53:49;16.90;99.90
6581;DHT22;3324;50.796;7.228;2022-08-30T03:56:15;16.90;99.90
6581;DHT22;3324;50.796;7.228;2022-08-30T03:58:41;16.90;99.90
6581;DHT22;3324;50.796;7.228;2022-08-30T04:01:07;16.80;99.90
6581;DHT22;3324;50.796;7.228;2022-08-30T04:03:33;16.90;99.90
6581;DHT22;3324;50.796;7.228;2022-08-30T04:05:59;16.90;99.90
6581;DHT22;3324;50.796;7.228;2022-08-30T04:08:25;16.80;99.90
6581;DHT22;3324;50.796;7.228;2022-08-30T04:10:52;16.90;99.90
6581;DHT22;3324;50.796;7.228;2022-08-30T04:13:18;16.80;99.90
6581;DHT22;3324;50.796;7.228;2022-08-30T04:15:44;16.80;99.90
6581;DHT22;3324;50.796;7.228;2022-08-30T04:18:10;16.80;99.90
6581;DHT22;3324;50.796;7.228;2022-08-30T04:20:36;16.80;99.90
6581;DHT22;3324;50.796;7.228;2022-08-30T04:23:04;16.80;99.90
6581;DHT22;3324;50.796;7.228;2022-08-30T04:25:32;16.80;99.90
6581;DHT22;3324;50.796;7.228;2022-08-30T04:27:58;16.70;99.90
6581;DHT22;3324;50.796;7.228;2022-08-30T04:30:23;16.70;99.90
6581;DHT22;3324;50.796;7.228;2022-08-30T04:32:49;16.60;99.90
6581;DHT22;3324;50.796;7.228;2022-08-30T04:35:15;16.60;99.90
6581;DHT22;3324;50.796;7.228;2022-08-30T04:37:40;16.50;99.90
6581;DHT22;3324;50.796;7.228;2022-08-30T04:40:07;16.40;99.90
6581;DHT22;3324;50.796;7.228;2022-08-30T04:42:34;16.40;99.90
6581;DHT22;3324;50.796;7.228;2022-08-30T04:45:08;16.40;99.90
6581;DHT22;3324;50.796;7.228;2022-08-30T04:47:34;16.30;99.90
6581;DHT22;3324;50.796;7.228;2022-08-30T04:50:00;16.20;99.90
6581;DHT22;3324;50.796;7.228;2022-08-30T04:52:27;16.30;99.90
6581;DHT22;3324;50.796;7.228;2022-08-30T04:54:57;16.30;99.90
6581;DHT22;3324;50.796;7.228;2022-08-30T04:57:23;16.20;99.90
6581;DHT22;3324;50.796;7.228;2022-08-30T04:59:49;16.20;99.90
6581;DHT22;3324;50.796;7.228;2022-08-30T05:02:16;16.20;99.90
6581;DHT22;3324;50.796;7.228;2022-08-30T05:04:42;16.30;99.90
6581;DHT22;3324;50.796;7.228;2022-08-30T05:07:29;16.20;99.90
6581;DHT22;3324;50.796;7.228;2022-08-30T05:09:54;16.30;99.90
6581;DHT22;3324;50.796;7.228;2022-08-30T05:12:20;16.30;99.90
6581;DHT22;3324;50.796;7.228;2022-08-30T05:14:46;16.30;99.90
6581;DHT22;3324;50.796;7.228;2022-08-30T05:17:11;16.30;99.90
6581;DHT22;3324;50.796;7.228;2022-08-30T05:19:37;16.30;99.90
6581;DHT22;3324;50.796;7.228;2022-08-30T05:22:03;16.30;99.90
6581;DHT22;3324;50.796;7.228;2022-08-30T05:24:29;16.30;99.90
6581;DHT22;3324;50.796;7.228;2022-08-30T05:26:56;16.30;99.90
6581;DHT22;3324;50.796;7.228;2022-08-30T05:29:22;16.40;99.90
6581;DHT22;3324;50.796;7.228;2022-08-30T05:31:48;16.40;99.90
6581;DHT22;3324;50.796;7.228;2022-08-30T05:34:13;16.40;99.90
6581;DHT22;3324;50.796;7.228;2022-08-30T05:36:39;16.40;99.90
6581;DHT22;3324;50.796;7.228;2022-08-30T05:39:06;16.40;99.90
6581;DHT22;3324;50.796;7.228;2022-08-30T05:41:32;16.40;99.90
6581;DHT22;3324;50.796;7.228;2022-08-30T05:43:59;16.40;99.90
6581;DHT22;3324;50.796;7.228;2022-08-30T05:46:26;16.50;99.90
6581;DHT22;3324;50.796;7.228;2022-08-30T05:48:54;16.50;99.90
6581;DHT22;3324;50.796;7.228;2022-08-30T05:51:23;16.50;99.90
6581;DHT22;3324;50.796;7.228;2022-08-30T05:53:50;16.60;99.90
6581;DHT22;3324;50.796;7.228;2022-08-30T05:56:19;16.60;99.90
6581;DHT22;3324;50.796;7.228;2022-08-30T05:58:45;16.60;99.90
6581;DHT22;3324;50.796;7.228;2022-08-30T06:01:27;16.50;99.90
6581;DHT22;3324;50.796;7.228;2022-08-30T06:03:55;16.60;99.90
6581;DHT22;3324;50.796;7.228;2022-08-30T06:06:21;16.50;99.90
6581;DHT22;3324;50.796;7.228;2022-08-30T06:08:48;16.50;99.90
6581;DHT22;3324;50.796;7.228;2022-08-30T06:11:16;16.50;99.90
6581;DHT22;3324;50.796;7.228;2022-08-30T06:13:42;16.50;99.90
6581;DHT22;3324;50.796;7.228;2022-08-30T06:16:10;16.50;99.90
6581;DHT22;3324;50.796;7.228;2022-08-30T06:18:36;16.40;99.90
6581;DHT22;3324;50.796;7.228;2022-08-30T06:21:02;16.40;99.90
6581;DHT22;3324;50.796;7.228;2022-08-30T06:23:28;16.40;99.90
6581;DHT22;3324;50.796;7.228;2022-08-30T06:25:55;16.40;99.90
6581;DHT22;3324;50.796;7.228;2022-08-30T06:28:20;16.50;99.90
6581;DHT22;3324;50.796;7.228;2022-08-30T06:30:46;16.50;99.90
6581;DHT22;3324;50.796;7.228;2022-08-30T06:33:12;16.60;99.90
6581;DHT22;3324;50.796;7.228;2022-08-30T06:35:37;16.80;99.90
6581;DHT22;3324;50.796;7.228;2022-08-30T06:38:03;16.90;99.90
6581;DHT22;3324;50.796;7.228;2022-08-30T06:40:29;17.00;99.90
6581;DHT22;3324;50.796;7.228;2022-08-30T06:42:55;17.20;99.90
6581;DHT22;3324;50.796;7.228;2022-08-30T06:45:21;17.30;99.90
6581;DHT22;3324;50.796;7.228;2022-08-30T06:47:47;17.40;99.90
6581;DHT22;3324;50.796;7.228;2022-08-30T06:50:17;17.40;99.90
6581;DHT22;3324;50.796;7.228;2022-08-30T06:52:43;17.60;99.90
6581;DHT22;3324;50.796;7.228;2022-08-30T06:55:14;17.70;99.90
6581;DHT22;3324;50.796;7.228;2022-08-30T06:57:40;17.80;99.90
6581;DHT22;3324;50.796;7.228;2022-08-30T07:00:08;18.00;99.90
6581;DHT22;3324;50.796;7.228;2022-08-30T07:02:36;18.10;99.90
6581;DHT22;3324;50.796;7.228;2022-08-30T07:05:02;18.20;99.90
6581;DHT22;3324;50.796;7.228;2022-08-30T07:07:28;18.30;99.90
6581;DHT22;3324;50.796;7.228;2022-08-30T07:09:54;18.50;99.90
6581;DHT22;3324;50.796;7.228;2022-08-30T07:12:20;18.60;99.90
6581;DHT22;3324;50.796;7.228;2022-08-30T07:14:46;18.70;99.90
6581;DHT22;3324;50.796;7.228;2022-08-30T07:17:12;18.90;99.90
6581;DHT22;3324;50.796;7.228;2022-08-30T07:19:56;19.00;99.90
6581;DHT22;3324;50.796;7.228;2022-08-30T07:22:22;19.10;99.90
6581;DHT22;3324;50.796;7.228;2022-08-30T07:24:48;19.10;99.90
6581;DHT22;3324;50.796;7.228;2022-08-30T07:27:14;19.20;99.90
6581;DHT22;3324;50.796;7.228;2022-08-30T07:29:39;19.30;99.90
6581;DHT22;3324;50.796;7.228;2022-08-30T07:32:05;19.40;99.90
6581;DHT22;3324;50.796;7.228;2022-08-30T07:34:31;19.50;99.90
6581;DHT22;3324;50.796;7.228;2022-08-30T07:36:57;19.70;99.90
6581;DHT22;3324;50.796;7.228;2022-08-30T07:39:22;19.70;99.90
6581;DHT22;3324;50.796;7.228;2022-08-30T07:41:48;19.90;99.90
6581;DHT22;3324;50.796;7.228;2022-08-30T07:44:15;20.00;99.90
6581;DHT22;3324;50.796;7.228;2022-08-30T07:46:41;20.20;99.90
6581;DHT22;3324;50.796;7.228;2022-08-30T07:49:07;20.30;99.90
6581;DHT22;3324;50.796;7.228;2022-08-30T07:51:34;20.50;99.90
6581;DHT22;3324;50.796;7.228;2022-08-30T07:54:01;20.70;99.90
6581;DHT22;3324;50.796;7.228;2022-08-30T07:56:27;20.80;99.90
6581;DHT22;3324;50.796;7.228;2022-08-30T07:58:52;21.00;99.90
6581;DHT22;3324;50.796;7.228;2022-08-30T08:01:20;21.00;99.90
6581;DHT22;3324;50.796;7.228;2022-08-30T08:03:46;21.00;99.90
6581;DHT22;3324;50.796;7.228;2022-08-30T08:06:16;21.00;99.90
6581;DHT22;3324;50.796;7.228;2022-08-30T08:08:41;21.00;99.90
6581;DHT22;3324;50.796;7.228;2022-08-30T08:11:28;21.00;99.90
6581;DHT22;3324;50.796;7.228;2022-08-30T08:13:54;21.20;99.90
6581;DHT22;3324;50.796;7.228;2022-08-30T08:16:22;21.30;99.90
6581;DHT22;3324;50.796;7.228;2022-08-30T08:18:48;21.30;99.90
6581;DHT22;3324;50.796;7.228;2022-08-30T08:21:13;21.40;99.90
6581;DHT22;3324;50.796;7.228;2022-08-30T08:23:39;21.50;99.90
6581;DHT22;3324;50.796;7.228;2022-08-30T08:26:05;21.60;99.90
6581;DHT22;3324;50.796;7.228;2022-08-30T08:28:30;21.70;99.90
6581;DHT22;3324;50.796;7.228;2022-08-30T08:30:56;21.90;99.90
6581;DHT22;3324;50.796;7.228;2022-08-30T08:33:22;22.10;99.90
6581;DHT22;3324;50.796;7.228;2022-08-30T08:35:48;22.30;99.90
6581;DHT22;3324;50.796;7.228;2022-08-30T08:38:14;22.50;99.90
6581;DHT22;3324;50.796;7.228;2022-08-30T08:43:47;22.80;99.90
6581;DHT22;3324;50.796;7.228;2022-08-30T08:49:14;23.20;99.90
6581;DHT22;3324;50.796;7.228;2022-08-30T08:51:40;23.20;99.90
6581;DHT22;3324;50.796;7.228;2022-08-30T08:54:35;23.40;99.90
6581;DHT22;3324;50.796;7.228;2022-08-30T08:57:03;23.50;99.90
6581;DHT22;3324;50.796;7.228;2022-08-30T08:59:29;23.60;99.90
6581;DHT22;3324;50.796;7.228;2022-08-30T09:01:59;23.80;99.90
6581;DHT22;3324;50.796;7.228;2022-08-30T09:04:33;24.00;99.90
6581;DHT22;3324;50.796;7.228;2022-08-30T09:07:07;24.00;99.90
6581;DHT22;3324;50.796;7.228;2022-08-30T09:09:38;24.20;99.90
6581;DHT22;3324;50.796;7.228;2022-08-30T09:12:07;24.30;99.90
6581;DHT22;3324;50.796;7.228;2022-08-30T09:14:40;24.30;99.90
6581;DHT22;3324;50.796;7.228;2022-08-30T09:17:08;24.30;99.90
6581;DHT22;3324;50.796;7.228;2022-08-30T09:19:45;24.40;99.90
6581;DHT22;3324;50.796;7.228;2022-08-30T09:22:37;24.50;99.90
6581;DHT22;3324;50.796;7.228;2022-08-30T09:27:35;25.00;99.90
6581;DHT22;3324;50.796;7.228;2022-08-30T09:32:33;25.20;99.90
6581;DHT22;3324;50.796;7.228;2022-08-30T09:34:59;25.00;99.90
6581;DHT22;3324;50.796;7.228;2022-08-30T09:37:36;24.90;99.90
6581;DHT22;3324;50.796;7.228;2022-08-30T09:40:09;24.70;99.90
6581;DHT22;3324;50.796;7.228;2022-08-30T09:42:36;24.60;99.90
6581;DHT22;3324;50.796;7.228;2022-08-30T09:45:04;24.70;99.90
6581;DHT22;3324;50.796;7.228;2022-08-30T09:47:38;24.90;99.90
6581;DHT22;3324;50.796;7.228;2022-08-30T09:50:18;25.20;99.90
6581;DHT22;3324;50.796;7.228;2022-08-30T09:55:36;25.50;98.60
6581;DHT22;3324;50.796;7.228;2022-08-30T10:00:46;25.40;98.60
6581;DHT22;3324;50.796;7.228;2022-08-30T10:03:39;25.40;97.20
6581;DHT22;3324;50.796;7.228;2022-08-30T10:06:35;25.70;96.40
6581;DHT22;3324;50.796;7.228;2022-08-30T10:09:35;25.80;96.50
6581;DHT22;3324;50.796;7.228;2022-08-30T10:12:45;25.80;95.80
6581;DHT22;3324;50.796;7.228;2022-08-30T10:15:25;25.90;94.30
6581;DHT22;3324;50.796;7.228;2022-08-30T10:17:59;26.00;94.50
6581;DHT22;3324;50.796;7.228;2022-08-30T10:23:20;26.40;95.20
6581;DHT22;3324;50.796;7.228;2022-08-30T10:26:33;26.40;93.50
6581;DHT22;3324;50.796;7.228;2022-08-30T10:31:13;26.40;91.50
6581;DHT22;3324;50.796;7.228;2022-08-30T10:33:46;26.40;91.80
6581;DHT22;3324;50.796;7.228;2022-08-30T10:36:13;26.40;92.40
6581;DHT22;3324;50.796;7.228;2022-08-30T10:38:45;26.40;92.70
6581;DHT22;3324;50.796;7.228;2022-08-30T10:44:00;26.60;91.80
6581;DHT22;3324;50.796;7.228;2022-08-30T10:49:18;26.60;90.50
6581;DHT22;3324;50.796;7.228;2022-08-30T10:54:46;26.80;89.80
6581;DHT22;3324;50.796;7.228;2022-08-30T10:57:13;26.80;89.40
6581;DHT22;3324;50.796;7.228;2022-08-30T10:59:47;26.90;90.00
6581;DHT22;3324;50.796;7.228;2022-08-30T11:02:36;26.80;90.00
6581;DHT22;3324;50.796;7.228;2022-08-30T11:05:30;27.00;90.40
6581;DHT22;3324;50.796;7.228;2022-08-30T11:11:33;27.70;87.00
6581;DHT22;3324;50.796;7.228;2022-08-30T11:14:04;28.00;83.60
6581;DHT22;3324;50.796;7.228;2022-08-30T11:16:43;28.10;82.10
6581;DHT22;3324;50.796;7.228;2022-08-30T11:19:25;28.00;82.60
6581;DHT22;3324;50.796;7.228;2022-08-30T11:21:53;27.80;81.60
6581;DHT22;3324;50.796;7.228;2022-08-30T11:27:53;27.50;83.60
6581;DHT22;3324;50.796;7.228;2022-08-30T11:35:49;27.90;82.70
6581;DHT22;3324;50.796;7.228;2022-08-30T11:59:46;29.20;74.80
6581;DHT22;3324;50.796;7.228;2022-08-30T12:10:48;29.90;71.40
6581;DHT22;3324;50.796;7.228;2022-08-30T12:16:06;29.90;70.60
6581;DHT22;3324;50.796;7.228;2022-08-30T12:41:53;30.00;66.40
6581;DHT22;3324;50.796;7.228;2022-08-30T12:44:26;30.20;67.50
6581;DHT22;3324;50.796;7.228;2022-08-30T12:47:01;30.30;67.10
6581;DHT22;3324;50.796;7.228;2022-08-30T12:49:32;30.40;67.50
6581;DHT22;3324;50.796;7.228;2022-08-30T12:54:43;30.00;66.40
6581;DHT22;3324;50.796;7.228;2022-08-30T12:57:10;29.80;67.00
6581;DHT22;3324;50.796;7.228;2022-08-30T12:59:52;29.80;67.00
6581;DHT22;3324;50.796;7.228;2022-08-30T13:02:21;29.60;67.00
6581;DHT22;3324;50.796;7.228;2022-08-30T13:04:50;29.50;67.20
6581;DHT22;3324;50.796;7.228;2022-08-30T13:07:26;29.70;68.10
6581;DHT22;3324;50.796;7.228;2022-08-30T13:10:12;29.70;67.30
6581;DHT22;3324;50.796;7.228;2022-08-30T13:12:39;29.60;68.90
6581;DHT22;3324;50.796;7.228;2022-08-30T13:15:18;29.30;69.30
6581;DHT22;3324;50.796;7.228;2022-08-30T13:17:45;29.10;69.80
6581;DHT22;3324;50.796;7.228;2022-08-30T13:22:41;29.00;71.30
6581;DHT22;3324;50.796;7.228;2022-08-30T13:25:09;29.20;70.30
6581;DHT22;3324;50.796;7.228;2022-08-30T13:27:37;29.40;69.80
6581;DHT22;3324;50.796;7.228;2022-08-30T13:30:12;29.50;69.40
6581;DHT22;3324;50.796;7.228;2022-08-30T13:32:38;29.70;69.10
6581;DHT22;3324;50.796;7.228;2022-08-30T13:35:05;29.90;67.30
6581;DHT22;3324;50.796;7.228;2022-08-30T13:37:31;30.10;66.90
6581;DHT22;3324;50.796;7.228;2022-08-30T13:39:58;30.10;67.40
6581;DHT22;3324;50.796;7.228;2022-08-30T13:42:23;30.20;67.50
6581;DHT22;3324;50.796;7.228;2022-08-30T13:44:49;30.30;66.60
6581;DHT22;3324;50.796;7.228;2022-08-30T13:47:15;30.50;66.10
6581;DHT22;3324;50.796;7.228;2022-08-30T13:49:42;30.40;65.30
6581;DHT22;3324;50.796;7.228;2022-08-30T13:52:11;30.50;66.50
6581;DHT22;3324;50.796;7.228;2022-08-30T13:54:38;30.50;66.10
6581;DHT22;3324;50.796;7.228;2022-08-30T13:57:04;30.60;66.20
6581;DHT22;3324;50.796;7.228;2022-08-30T13:59:30;30.50;65.70
6581;DHT22;3324;50.796;7.228;2022-08-30T14:01:59;30.60;64.90
6581;DHT22;3324;50.796;7.228;2022-08-30T14:04:25;30.70;64.20
6581;DHT22;3324;50.796;7.228;2022-08-30T14:06:50;30.70;64.50
6581;DHT22;3324;50.796;7.228;2022-08-30T14:09:16;30.70;64.50
6581;DHT22;3324;50.796;7.228;2022-08-30T14:11:41;30.70;63.80
6581;DHT22;3324;50.796;7.228;2022-08-30T14:14:07;30.80;64.90
6581;DHT22;3324;50.796;7.228;2022-08-30T14:16:35;30.80;64.10
6581;DHT22;3324;50.796;7.228;2022-08-30T14:19:01;30.90;63.30
6581;DHT22;3324;50.796;7.228;2022-08-30T14:21:27;30.90;63.10
6581;DHT22;3324;50.796;7.228;2022-08-30T14:23:53;30.80;63.20
6581;DHT22;3324;50.796;7.228;2022-08-30T14:26:23;30.80;62.70
6581;DHT22;3324;50.796;7.228;2022-08-30T14:28:48;30.60;62.30
6581;DHT22;3324;50.796;7.228;2022-08-30T14:31:14;30.40;64.30
6581;DHT22;3324;50.796;7.228;2022-08-30T14:33:43;30.30;64.00
6581;DHT22;3324;50.796;7.228;2022-08-30T14:36:09;30.10;64.10
6581;DHT22;3324;50.796;7.228;2022-08-30T14:38:36;30.10;64.60
6581;DHT22;3324;50.796;7.228;2022-08-30T14:41:03;30.10;64.00
6581;DHT22;3324;50.796;7.228;2022-08-30T14:43:29;30.10;64.40
6581;DHT22;3324;50.796;7.228;2022-08-30T14:45:57;30.00;63.40
6581;DHT22;3324;50.796;7.228;2022-08-30T14:48:23;29.90;63.80
6581;DHT22;3324;50.796;7.228;2022-08-30T14:50:48;29.90;64.50
6581;DHT22;3324;50.796;7.228;2022-08-30T14:53:14;29.80;64.20
6581;DHT22;3324;50.796;7.228;2022-08-30T14:55:40;29.70;64.70
6581;DHT22;3324;50.796;7.228;2022-08-30T14:58:05;29.70;64.50
6581;DHT22;3324;50.796;7.228;2022-08-30T15:00:33;29.60;64.00
6581;DHT22;3324;50.796;7.228;2022-08-30T15:02:58;29.60;64.20
6581;DHT22;3324;50.796;7.228;2022-08-30T15:05:24;29.60;64.70
6581;DHT22;3324;50.796;7.228;2022-08-30T15:07:50;29.50;64.60
6581;DHT22;3324;50.796;7.228;2022-08-30T15:10:18;29.50;66.30
6581;DHT22;3324;50.796;7.228;2022-08-30T15:12:49;29.50;65.80
6581;DHT22;3324;50.796;7.228;2022-08-30T15:15:17;29.40;66.00
6581;DHT22;3324;50.796;7.228;2022-08-30T15:17:47;29.30;66.50
6581;DHT22;3324;50.796;7.228;2022-08-30T15:20:15;29.10;66.90
6581;DHT22;3324;50.796;7.228;2022-08-30T15:22:45;29.00;67.20
6581;DHT22;3324;50.796;7.228;2022-08-30T15:25:11;28.90;67.00
6581;DHT22;3324;50.796;7.228;2022-08-30T15:27:37;28.90;66.50
6581;DHT22;3324;50.796;7.228;2022-08-30T15:30:04;28.90;67.30
6581;DHT22;3324;50.796;7.228;2022-08-30T15:32:30;28.70;68.20
6581;DHT22;3324;50.796;7.228;2022-08-30T15:34:56;28.70;67.30
6581;DHT22;3324;50.796;7.228;2022-08-30T15:37:21;28.60;67.10
6581;DHT22;3324;50.796;7.228;2022-08-30T15:39:51;28.60;67.80
6581;DHT22;3324;50.796;7.228;2022-08-30T15:42:17;28.50;69.20
6581;DHT22;3324;50.796;7.228;2022-08-30T15:44:54;28.40;68.00
6581;DHT22;3324;50.796;7.228;2022-08-30T15:47:22;28.30;67.70
6581;DHT22;3324;50.796;7.228;2022-08-30T15:50:00;28.30;67.90
6581;DHT22;3324;50.796;7.228;2022-08-30T15:52:28;28.30;68.10
6581;DHT22;3324;50.796;7.228;2022-08-30T15:54:54;28.20;68.30
6581;DHT22;3324;50.796;7.228;2022-08-30T15:57:19;28.10;69.00
6581;DHT22;3324;50.796;7.228;2022-08-30T15:59:45;28.10;68.80
6581;DHT22;3324;50.796;7.228;2022-08-30T16:02:11;28.10;69.30
6581;DHT22;3324;50.796;7.228;2022-08-30T16:04:37;28.10;69.80
6581;DHT22;3324;50.796;7.228;2022-08-30T16:07:14;28.10;69.40
6581;DHT22;3324;50.796;7.228;2022-08-30T16:09:40;28.10;69.70
6581;DHT22;3324;50.796;7.228;2022-08-30T16:12:06;28.10;68.50
6581;DHT22;3324;50.796;7.228;2022-08-30T16:14:32;28.10;68.50
6581;DHT22;3324;50.796;7.228;2022-08-30T16:16:59;28.10;68.60
6581;DHT22;3324;50.796;7.228;2022-08-30T16:19:24;28.00;68.20
6581;DHT22;3324;50.796;7.228;2022-08-30T16:21:50;28.00;69.20
6581;DHT22;3324;50.796;7.228;2022-08-30T16:24:16;28.00;69.50
6581;DHT22;3324;50.796;7.228;2022-08-30T16:26:43;27.90;70.60
6581;DHT22;3324;50.796;7.228;2022-08-30T16:29:09;27.80;71.90
6581;DHT22;3324;50.796;7.228;2022-08-30T16:31:35;27.70;72.60
6581;DHT22;3324;50.796;7.228;2022-08-30T16:34:02;27.70;73.50
6581;DHT22;3324;50.796;7.228;2022-08-30T16:36:28;27.60;74.00
6581;DHT22;3324;50.796;7.228;2022-08-30T16:38:54;27.60;74.90
6581;DHT22;3324;50.796;7.228;2022-08-30T16:41:20;27.60;75.80
6581;DHT22;3324;50.796;7.228;2022-08-30T16:43:48;27.50;75.70
6581;DHT22;3324;50.796;7.228;2022-08-30T16:46:15;27.50;76.60
6581;DHT22;3324;50.796;7.228;2022-08-30T16:48:42;27.40;76.10
6581;DHT22;3324;50.796;7.228;2022-08-30T16:51:12;27.40;75.40
6581;DHT22;3324;50.796;7.228;2022-08-30T16:53:39;27.30;75.90
6581;DHT22;3324;50.796;7.228;2022-08-30T16:56:19;27.20;76.50
6581;DHT22;3324;50.796;7.228;2022-08-30T16:58:46;27.20;77.10
6581;DHT22;3324;50.796;7.228;2022-08-30T17:01:12;27.10;77.30
6581;DHT22;3324;50.796;7.228;2022-08-30T17:03:39;27.10;77.90
6581;DHT22;3324;50.796;7.228;2022-08-30T17:06:05;27.00;78.10
6581;DHT22;3324;50.796;7.228;2022-08-30T17:08:31;27.00;78.30
6581;DHT22;3324;50.796;7.228;2022-08-30T17:10:57;27.00;78.40
6581;DHT22;3324;50.796;7.228;2022-08-30T17:13:23;26.90;79.00
6581;DHT22;3324;50.796;7.228;2022-08-30T17:15:49;26.90;78.60
6581;DHT22;3324;50.796;7.228;2022-08-30T17:18:16;26.90;79.20
6581;DHT22;3324;50.796;7.228;2022-08-30T17:20:43;26.80;79.20
6581;DHT22;3324;50.796;7.228;2022-08-30T17:23:08;26.70;79.70
6581;DHT22;3324;50.796;7.228;2022-08-30T17:25:35;26.70;80.20
6581;DHT22;3324;50.796;7.228;2022-08-30T17:28:01;26.70;80.70
6581;DHT22;3324;50.796;7.228;2022-08-30T17:30:26;26.60;81.00
6581;DHT22;3324;50.796;7.228;2022-08-30T17:32:52;26.60;81.10
6581;DHT22;3324;50.796;7.228;2022-08-30T17:35:19;26.50;81.30
6581;DHT22;3324;50.796;7.228;2022-08-30T17:37:45;26.50;82.10
6581;DHT22;3324;50.796;7.228;2022-08-30T17:40:11;26.40;82.40
6581;DHT22;3324;50.796;7.228;2022-08-30T17:42:36;26.40;83.30
6581;DHT22;3324;50.796;7.228;2022-08-30T17:45:08;26.30;83.60
6581;DHT22;3324;50.796;7.228;2022-08-30T17:47:34;26.30;84.10
6581;DHT22;3324;50.796;7.228;2022-08-30T17:49:59;26.30;84.20
6581;DHT22;3324;50.796;7.228;2022-08-30T17:52:25;26.20;84.60